createdAt,value
2023-03-30T00:02:14.054Z,9.30
2023-03-30T00:04:46.026Z,9.28
2023-03-30T00:07:17.552Z,9.33
2023-03-30T00:09:49.350Z,9.33
2023-03-30T00:12:20.889Z,9.26
2023-03-30T00:14:52.773Z,9.25
2023-03-30T00:17:24.251Z,9.27
2023-03-30T00:19:55.743Z,9.24
2023-03-30T00:22:27.220Z,9.23
2023-03-30T00:24:58.701Z,9.21
2023-03-30T00:27:30.177Z,9.17
2023-03-30T00:30:01.688Z,9.18
2023-03-30T00:32:33.198Z,9.13
2023-03-30T00:35:05.005Z,9.11
2023-03-30T00:37:36.470Z,9.08
2023-03-30T00:40:08.257Z,9.05
2023-03-30T00:42:39.708Z,9.08
2023-03-30T00:45:11.551Z,9.05
2023-03-30T00:47:43.037Z,9.10
2023-03-30T00:50:14.833Z,9.04
2023-03-30T00:52:46.345Z,9.07
2023-03-30T00:55:18.210Z,9.12
2023-03-30T00:57:49.672Z,9.11
2023-03-30T01:00:21.486Z,9.08
2023-03-30T01:02:53.027Z,9.07
2023-03-30T01:05:25.009Z,9.12
2023-03-30T01:07:56.497Z,9.03
2023-03-30T01:10:28.301Z,8.98
2023-03-30T01:12:59.773Z,8.99
2023-03-30T01:15:31.588Z,8.99
2023-03-30T01:18:03.131Z,8.95
2023-03-30T01:20:35.029Z,8.88
2023-03-30T01:23:06.483Z,8.83
2023-03-30T01:25:38.274Z,8.73
2023-03-30T01:28:09.790Z,8.64
2023-03-30T01:30:41.833Z,8.70
2023-03-30T01:33:13.290Z,8.77
2023-03-30T01:35:44.825Z,8.78
2023-03-30T01:38:16.373Z,8.80
2023-03-30T01:40:47.849Z,8.75
2023-03-30T01:43:19.324Z,8.74
2023-03-30T01:45:51.026Z,8.71
2023-03-30T01:48:22.510Z,8.67
2023-03-30T01:50:54.062Z,8.61
2023-03-30T01:53:25.532Z,8.59
2023-03-30T01:55:57.046Z,8.64
2023-03-30T01:58:28.506Z,8.62
2023-03-30T02:00:59.981Z,8.64
2023-03-30T02:03:31.638Z,8.62
2023-03-30T02:06:03.521Z,8.63
2023-03-30T02:08:35.005Z,8.61
2023-03-30T02:11:07.004Z,8.65
2023-03-30T02:13:38.683Z,8.67
2023-03-30T02:16:10.542Z,8.61
2023-03-30T02:18:42.034Z,8.64
2023-03-30T02:21:13.873Z,8.65
2023-03-30T02:23:45.407Z,8.66
2023-03-30T02:26:17.321Z,8.70
2023-03-30T02:28:48.790Z,8.73
2023-03-30T02:31:20.644Z,8.81
2023-03-30T02:33:52.167Z,8.86
2023-03-30T02:36:24.039Z,8.82
2023-03-30T02:38:55.543Z,8.83
2023-03-30T02:41:27.382Z,8.75
2023-03-30T02:43:58.859Z,8.74
2023-03-30T02:46:30.516Z,8.81
2023-03-30T02:49:02.002Z,8.82
2023-03-30T02:51:33.985Z,8.91
2023-03-30T02:54:05.441Z,8.90
2023-03-30T02:56:37.135Z,8.90
2023-03-30T02:59:08.623Z,8.86
2023-03-30T03:01:40.368Z,8.84
2023-03-30T03:04:11.854Z,8.83
2023-03-30T03:06:43.661Z,8.86
2023-03-30T03:09:15.155Z,8.88
2023-03-30T03:11:47.006Z,8.91
2023-03-30T03:14:18.476Z,8.81
2023-03-30T03:16:50.298Z,8.89
2023-03-30T03:19:21.782Z,8.85
2023-03-30T03:21:53.616Z,8.78
2023-03-30T03:24:25.099Z,8.75
2023-03-30T03:26:56.569Z,8.76
2023-03-30T03:29:28.034Z,8.70
2023-03-30T03:31:59.507Z,8.67
2023-03-30T03:34:30.973Z,8.66
2023-03-30T03:37:02.818Z,8.65
2023-03-30T03:39:34.292Z,8.66
2023-03-30T03:42:05.973Z,8.63
2023-03-30T03:44:37.432Z,8.62
2023-03-30T03:47:08.916Z,8.63
2023-03-30T03:49:40.393Z,8.68
2023-03-30T03:52:12.204Z,8.66
2023-03-30T03:54:43.659Z,8.68
2023-03-30T03:57:15.503Z,8.70
2023-03-30T03:59:46.980Z,8.71
2023-03-30T04:02:19.466Z,8.70
2023-03-30T04:04:52.200Z,8.69
2023-03-30T04:07:23.974Z,8.72
2023-03-30T04:09:55.434Z,8.74
2023-03-30T04:12:27.289Z,8.72
2023-03-30T04:14:58.757Z,8.68
2023-03-30T04:17:30.568Z,8.74
2023-03-30T04:20:02.029Z,8.74
2023-03-30T04:22:33.762Z,8.71
2023-03-30T04:25:05.311Z,8.63
2023-03-30T04:27:37.219Z,8.64
2023-03-30T04:30:08.674Z,8.58
2023-03-30T04:32:40.598Z,8.55
2023-03-30T04:35:12.075Z,8.58
2023-03-30T04:37:43.775Z,8.57
2023-03-30T04:40:15.249Z,8.58
2023-03-30T04:42:47.037Z,8.63
2023-03-30T04:45:18.509Z,8.66
2023-03-30T04:47:50.380Z,8.70
2023-03-30T04:50:21.914Z,8.69
2023-03-30T04:52:53.635Z,8.62
2023-03-30T04:55:25.097Z,8.60
2023-03-30T04:57:56.584Z,8.64
2023-03-30T05:00:28.063Z,8.56
2023-03-30T05:02:59.690Z,8.62
2023-03-30T05:05:31.255Z,8.66
2023-03-30T05:08:03.142Z,8.69
2023-03-30T05:10:34.597Z,8.71
2023-03-30T05:13:06.429Z,8.76
2023-03-30T05:15:37.896Z,8.81
2023-03-30T05:18:09.641Z,8.77
2023-03-30T05:20:41.236Z,8.89
2023-03-30T05:23:12.862Z,8.88
2023-03-30T05:25:44.326Z,8.95
2023-03-30T05:28:16.069Z,9.03
2023-03-30T05:30:47.524Z,9.04
2023-03-30T05:33:19.365Z,8.99
2023-03-30T05:35:50.888Z,9.01
2023-03-30T05:38:22.673Z,8.94
2023-03-30T05:40:54.156Z,8.99
2023-03-30T05:43:26.034Z,9.07
2023-03-30T05:45:57.498Z,9.07
2023-03-30T05:48:29.248Z,9.12
2023-03-30T05:51:02.451Z,9.02
2023-03-30T05:53:34.532Z,9.03
2023-03-30T05:56:06.380Z,9.03
2023-03-30T05:58:37.845Z,7.62
2023-03-30T06:01:09.714Z,9.07
2023-03-30T06:03:41.321Z,9.17
2023-03-30T06:06:13.150Z,9.27
2023-03-30T06:08:44.614Z,9.34
2023-03-30T06:11:16.086Z,9.51
2023-03-30T06:13:47.551Z,9.52
2023-03-30T06:16:19.399Z,9.40
2023-03-30T06:18:51.110Z,9.63
2023-03-30T06:21:23.096Z,9.65
2023-03-30T06:23:54.551Z,9.75
2023-03-30T06:26:26.193Z,9.78
2023-03-30T06:28:57.677Z,10.09
2023-03-30T06:31:29.583Z,10.26
2023-03-30T06:34:01.083Z,10.44
2023-03-30T06:36:44.362Z,10.30
2023-03-30T06:39:16.798Z,10.55
2023-03-30T06:41:48.474Z,10.44
2023-03-30T06:44:19.962Z,10.73
2023-03-30T06:46:51.600Z,10.56
2023-03-30T06:49:23.060Z,10.84
2023-03-30T06:51:54.539Z,10.67
2023-03-30T06:54:26.059Z,11.01
2023-03-30T06:56:57.571Z,11.01
2023-03-30T06:59:29.040Z,10.89
2023-03-30T07:02:00.497Z,11.02
2023-03-30T07:04:32.013Z,10.61
2023-03-30T07:07:03.849Z,10.72
2023-03-30T07:09:35.298Z,10.76
2023-03-30T07:12:07.147Z,10.87
2023-03-30T07:14:38.604Z,11.25
2023-03-30T07:17:10.473Z,11.33
2023-03-30T07:19:42.025Z,11.55
2023-03-30T07:22:13.726Z,12.25
2023-03-30T07:24:45.178Z,12.01
2023-03-30T07:27:17.016Z,11.54
2023-03-30T07:29:48.475Z,11.56
2023-03-30T07:32:20.250Z,12.05
2023-03-30T07:34:51.730Z,12.53
2023-03-30T07:37:23.514Z,12.84
2023-03-30T07:39:55.009Z,13.03
2023-03-30T07:42:26.695Z,13.19
2023-03-30T07:44:58.135Z,13.14
2023-03-30T07:47:29.950Z,13.19
2023-03-30T07:50:01.407Z,13.13
2023-03-30T07:52:33.201Z,13.59
2023-03-30T07:55:04.653Z,13.85
2023-03-30T07:57:36.124Z,13.80
2023-03-30T08:00:07.728Z,13.85
2023-03-30T08:02:39.721Z,13.76
2023-03-30T08:05:11.338Z,14.13
2023-03-30T08:07:43.252Z,13.64
2023-03-30T08:10:14.736Z,14.89
2023-03-30T08:12:46.518Z,15.26
2023-03-30T08:15:18.025Z,15.19
2023-03-30T08:17:49.852Z,15.78
2023-03-30T08:20:21.341Z,14.84
2023-03-30T08:22:53.165Z,14.73
2023-03-30T08:25:24.641Z,14.51
2023-03-30T08:27:56.108Z,15.28
2023-03-30T08:30:27.550Z,15.50
2023-03-30T08:32:59.061Z,15.62
2023-03-30T08:35:30.574Z,16.08
2023-03-30T08:38:02.220Z,16.52
2023-03-30T08:40:33.679Z,16.38
2023-03-30T08:43:05.535Z,16.05
2023-03-30T08:45:37.431Z,16.34
2023-03-30T08:48:10.299Z,16.55
2023-03-30T08:50:41.772Z,16.17
2023-03-30T08:53:13.586Z,16.13
2023-03-30T08:55:45.116Z,16.49
2023-03-30T08:58:16.777Z,16.61
2023-03-30T09:00:48.238Z,16.68
2023-03-30T09:03:20.252Z,16.46
2023-03-30T09:05:51.814Z,16.24
2023-03-30T09:08:23.734Z,15.87
2023-03-30T09:10:55.264Z,15.77
2023-03-30T09:13:27.107Z,15.94
2023-03-30T09:15:58.573Z,16.03
2023-03-30T09:18:30.245Z,16.02
2023-03-30T09:21:01.728Z,16.13
2023-03-30T09:23:33.565Z,16.30
2023-03-30T09:26:04.995Z,16.53
2023-03-30T09:28:36.873Z,16.49
2023-03-30T09:31:08.762Z,16.32
2023-03-30T09:33:40.920Z,16.61
2023-03-30T09:36:12.409Z,16.09
2023-03-30T09:38:44.127Z,15.97
2023-03-30T09:41:15.585Z,16.29
2023-03-30T09:43:47.260Z,15.89
2023-03-30T09:46:18.717Z,15.89
2023-03-30T09:48:50.570Z,16.06
2023-03-30T09:51:22.024Z,16.23
2023-03-30T09:53:54.065Z,16.41
2023-03-30T09:56:25.508Z,16.38
2023-03-30T09:58:56.985Z,16.21
2023-03-30T10:01:28.508Z,16.12
2023-03-30T10:04:00.236Z,16.21
2023-03-30T10:06:31.870Z,16.40
2023-03-30T10:09:03.537Z,16.12
2023-03-30T10:11:35.001Z,15.76
2023-03-30T10:14:06.828Z,15.67
2023-03-30T10:16:38.330Z,15.70
2023-03-30T10:19:10.152Z,15.48
2023-03-30T10:21:41.618Z,15.31
2023-03-30T10:24:13.272Z,15.26
2023-03-30T10:26:44.729Z,15.22
2023-03-30T10:29:16.478Z,15.16
2023-03-30T10:31:48.006Z,15.15
2023-03-30T10:34:19.854Z,15.12
2023-03-30T10:36:53.240Z,15.27
2023-03-30T10:39:26.446Z,15.45
2023-03-30T10:41:59.888Z,16.11
2023-03-30T10:44:31.997Z,16.03
2023-03-30T10:47:03.480Z,16.43
2023-03-30T10:49:35.227Z,16.55
2023-03-30T10:52:06.720Z,16.35
2023-03-30T10:54:38.201Z,16.58
2023-03-30T10:57:09.700Z,16.91
2023-03-30T10:59:41.797Z,17.06
2023-03-30T11:02:13.232Z,16.93
2023-03-30T11:04:44.707Z,16.66
2023-03-30T11:07:16.163Z,16.52
2023-03-30T11:09:47.811Z,16.50
2023-03-30T11:12:19.267Z,16.51
2023-03-30T11:14:50.716Z,16.51
2023-03-30T11:17:22.182Z,16.66
2023-03-30T11:19:53.970Z,17.28
2023-03-30T11:22:25.425Z,16.98
2023-03-30T11:24:56.984Z,17.09
2023-03-30T11:27:28.428Z,17.30
2023-03-30T11:29:59.917Z,16.97
2023-03-30T11:32:31.482Z,17.08
2023-03-30T11:35:03.402Z,17.00
2023-03-30T11:37:34.863Z,17.21
2023-03-30T11:40:06.318Z,17.54
2023-03-30T11:42:38.105Z,18.03
2023-03-30T11:45:09.575Z,18.29
2023-03-30T11:47:41.359Z,17.65
2023-03-30T11:50:12.843Z,17.91
2023-03-30T11:52:44.617Z,18.18
2023-03-30T11:55:16.121Z,18.91
2023-03-30T11:57:47.947Z,18.94
2023-03-30T12:00:19.395Z,18.68
2023-03-30T12:02:51.259Z,18.55
2023-03-30T12:05:22.805Z,18.93
2023-03-30T12:07:54.262Z,19.12
2023-03-30T12:10:25.707Z,19.42
2023-03-30T12:12:57.153Z,20.25
2023-03-30T12:15:28.608Z,20.36
2023-03-30T12:18:00.145Z,19.63
2023-03-30T12:20:31.640Z,20.66
2023-03-30T12:23:03.388Z,19.70
2023-03-30T12:25:34.826Z,19.71
2023-03-30T12:28:06.794Z,20.15
2023-03-30T12:30:38.260Z,19.83
2023-03-30T12:33:10.086Z,19.74
2023-03-30T12:35:41.753Z,20.34
2023-03-30T12:38:13.475Z,20.71
2023-03-30T12:40:44.939Z,20.40
2023-03-30T12:43:16.721Z,20.66
2023-03-30T12:45:48.228Z,20.57
2023-03-30T12:48:19.913Z,20.83
2023-03-30T12:50:51.320Z,21.19
2023-03-30T12:53:23.087Z,21.22
2023-03-30T12:55:54.525Z,21.58
2023-03-30T12:58:26.314Z,20.85
2023-03-30T13:00:57.906Z,20.45
2023-03-30T13:03:29.926Z,20.17
2023-03-30T13:06:01.494Z,20.21
2023-03-30T13:08:33.406Z,20.50
2023-03-30T13:11:04.900Z,19.90
2023-03-30T13:13:36.792Z,20.10
2023-03-30T13:16:08.506Z,19.74
2023-03-30T13:18:40.512Z,19.70
2023-03-30T13:21:12.076Z,19.74
2023-03-30T13:23:43.707Z,19.31
2023-03-30T13:26:21.818Z,18.96
2023-03-30T13:28:59.910Z,18.74
2023-03-30T13:31:31.366Z,19.11
2023-03-30T13:34:03.199Z,18.83
2023-03-30T13:36:34.657Z,18.92
2023-03-30T13:39:06.550Z,18.54
2023-03-30T13:41:38.053Z,18.88
2023-03-30T13:44:09.985Z,18.73
2023-03-30T13:46:41.515Z,18.66
2023-03-30T13:49:13.353Z,18.28
2023-03-30T13:51:44.816Z,17.97
2023-03-30T13:54:16.648Z,17.69
2023-03-30T13:56:48.152Z,17.46
2023-03-30T13:59:19.783Z,15.81
2023-03-30T14:01:51.304Z,14.76
2023-03-30T14:04:23.117Z,13.98
2023-03-30T14:06:54.555Z,13.28
2023-03-30T14:09:26.426Z,12.67
2023-03-30T14:11:57.890Z,12.66
2023-03-30T14:14:29.747Z,12.53
2023-03-30T14:17:01.315Z,12.48
2023-03-30T14:19:33.135Z,12.36
2023-03-30T14:22:04.588Z,12.26
2023-03-30T14:24:36.434Z,12.22
2023-03-30T14:27:07.885Z,12.20
2023-03-30T14:29:39.759Z,12.08
2023-03-30T14:32:13.440Z,12.10
2023-03-30T14:34:46.152Z,12.22
2023-03-30T14:37:19.708Z,12.16
2023-03-30T14:39:52.903Z,12.27
2023-03-30T14:42:24.449Z,12.20
2023-03-30T14:44:55.924Z,12.05
2023-03-30T14:47:27.445Z,11.89
2023-03-30T14:49:58.923Z,11.87
2023-03-30T14:52:30.497Z,11.92
2023-03-30T14:55:06.748Z,11.82
2023-03-30T14:57:39.681Z,11.87
2023-03-30T15:00:11.318Z,11.83
2023-03-30T15:02:42.809Z,11.82
2023-03-30T15:05:14.468Z,11.69
2023-03-30T15:07:45.948Z,11.59
2023-03-30T15:10:17.756Z,11.56
2023-03-30T15:12:49.214Z,11.52
2023-03-30T15:15:21.087Z,11.55
2023-03-30T15:17:52.592Z,11.57
2023-03-30T15:20:24.376Z,11.46
2023-03-30T15:22:55.820Z,11.36
2023-03-30T15:25:27.714Z,11.28
2023-03-30T15:27:59.147Z,11.25
2023-03-30T15:30:30.903Z,11.20
2023-03-30T15:33:02.443Z,11.27
2023-03-30T15:35:34.377Z,11.23
2023-03-30T15:38:05.847Z,11.28
2023-03-30T15:40:37.674Z,11.41
2023-03-30T15:43:09.115Z,11.44
2023-03-30T15:45:40.934Z,11.52
2023-03-30T15:48:12.410Z,11.62
2023-03-30T15:50:44.274Z,11.62
2023-03-30T15:53:15.741Z,11.66
2023-03-30T15:55:47.588Z,11.61
2023-03-30T15:58:19.045Z,11.73
2023-03-30T16:00:50.667Z,11.83
2023-03-30T16:03:22.114Z,11.82
2023-03-30T16:05:53.973Z,11.69
2023-03-30T16:08:25.427Z,11.65
2023-03-30T16:10:56.908Z,11.76
2023-03-30T16:13:28.345Z,11.83
2023-03-30T16:15:59.903Z,11.84
2023-03-30T16:18:31.439Z,11.98
2023-03-30T16:21:03.450Z,12.15
2023-03-30T16:23:35.235Z,12.24
2023-03-30T16:26:07.172Z,12.50
2023-03-30T16:28:40.802Z,12.58
2023-03-30T16:31:14.547Z,12.79
2023-03-30T16:33:46.010Z,12.70
2023-03-30T16:36:17.733Z,12.57
2023-03-30T16:38:49.186Z,12.37
2023-03-30T16:41:20.869Z,12.30
2023-03-30T16:43:52.315Z,12.02
2023-03-30T16:46:24.093Z,12.06
2023-03-30T16:48:55.564Z,12.15
2023-03-30T16:51:27.391Z,12.14
2023-03-30T16:53:58.845Z,12.09
2023-03-30T16:56:30.690Z,12.13
2023-03-30T16:59:02.136Z,12.32
2023-03-30T17:01:33.863Z,12.26
2023-03-30T17:04:05.413Z,12.25
2023-03-30T17:06:37.069Z,12.32
2023-03-30T17:09:08.601Z,12.30
2023-03-30T17:11:40.459Z,12.36
2023-03-30T17:14:11.886Z,12.16
2023-03-30T17:16:43.665Z,12.13
2023-03-30T17:19:15.485Z,12.16
2023-03-30T17:21:46.942Z,11.97
2023-03-30T17:24:18.741Z,11.89
2023-03-30T17:26:50.197Z,11.81
2023-03-30T17:29:21.849Z,11.74
2023-03-30T17:31:53.301Z,11.57
2023-03-30T17:34:25.143Z,11.54
2023-03-30T17:36:56.605Z,11.45
2023-03-30T17:39:28.341Z,11.40
2023-03-30T17:41:59.790Z,11.37
2023-03-30T17:44:31.496Z,11.32
2023-03-30T17:47:02.955Z,11.22
2023-03-30T17:49:34.953Z,11.19
2023-03-30T17:52:06.418Z,11.15
2023-03-30T17:54:37.884Z,11.18
2023-03-30T17:57:09.360Z,11.16
2023-03-30T17:59:41.117Z,11.10
2023-03-30T18:02:12.689Z,11.10
2023-03-30T18:04:44.207Z,11.10
2023-03-30T18:07:15.654Z,11.00
2023-03-30T18:09:47.483Z,10.96
2023-03-30T18:12:18.959Z,10.98
2023-03-30T18:14:50.470Z,10.98
2023-03-30T18:17:21.944Z,10.99
2023-03-30T18:19:53.595Z,10.92
2023-03-30T18:22:25.072Z,10.83
2023-03-30T18:24:56.516Z,10.84
2023-03-30T18:27:27.972Z,10.81
2023-03-30T18:29:59.471Z,10.77
2023-03-30T18:32:44.275Z,10.72
2023-03-30T18:35:18.355Z,10.65
2023-03-30T18:37:49.786Z,10.60
2023-03-30T18:40:21.815Z,10.56
2023-03-30T18:42:53.276Z,10.52
2023-03-30T18:45:25.073Z,10.50
2023-03-30T18:47:56.589Z,10.48
2023-03-30T18:50:28.534Z,10.46
2023-03-30T18:53:00.004Z,10.42
2023-03-30T18:55:31.484Z,10.46
2023-03-30T18:58:02.971Z,10.44
2023-03-30T19:00:34.679Z,10.47
2023-03-30T19:03:06.252Z,10.51
2023-03-30T19:05:38.279Z,10.51
2023-03-30T19:08:09.772Z,10.51
2023-03-30T19:10:41.619Z,10.49
2023-03-30T19:13:13.137Z,10.60
2023-03-30T19:15:45.042Z,10.61
2023-03-30T19:18:16.503Z,10.70
2023-03-30T19:20:47.988Z,10.74
2023-03-30T19:23:19.481Z,10.81
2023-03-30T19:25:51.295Z,10.84
2023-03-30T19:28:23.835Z,10.87
2023-03-30T19:30:55.373Z,10.80
2023-03-30T19:33:26.836Z,10.76
2023-03-30T19:35:58.335Z,10.77
2023-03-30T19:38:29.893Z,10.81
2023-03-30T19:41:01.403Z,10.83
2023-03-30T19:43:32.878Z,10.81
2023-03-30T19:46:04.692Z,10.80
2023-03-30T19:48:36.166Z,10.78
2023-03-30T19:51:08.185Z,10.72
2023-03-30T19:53:39.852Z,10.61
2023-03-30T19:56:11.714Z,10.58
2023-03-30T19:58:43.234Z,10.58
2023-03-30T20:01:15.132Z,10.55
2023-03-30T20:03:46.681Z,10.45
2023-03-30T20:06:18.594Z,10.34
2023-03-30T20:08:50.064Z,10.21
2023-03-30T20:11:21.869Z,10.21
2023-03-30T20:13:53.365Z,10.09
2023-03-30T20:16:25.285Z,9.97
2023-03-30T20:18:56.796Z,9.92
2023-03-30T20:21:28.334Z,9.92
2023-03-30T20:23:59.837Z,9.96
2023-03-30T20:26:31.656Z,9.99
2023-03-30T20:29:03.121Z,10.00
2023-03-30T20:31:35.057Z,10.02
2023-03-30T20:34:06.548Z,10.10
2023-03-30T20:36:38.055Z,10.07
2023-03-30T20:39:09.562Z,10.06
2023-03-30T20:41:41.128Z,9.99
2023-03-30T20:44:12.598Z,9.99
2023-03-30T20:49:36.857Z,8.90
2023-03-30T20:52:08.696Z,9.94
2023-03-30T20:54:40.168Z,9.91
2023-03-30T20:57:12.028Z,9.83
2023-03-30T20:59:43.534Z,9.86
2023-03-30T21:02:15.381Z,9.83
2023-03-30T21:04:46.872Z,9.83
2023-03-30T21:07:18.579Z,9.84
2023-03-30T21:09:50.060Z,9.78
2023-03-30T21:12:21.880Z,9.78
2023-03-30T21:14:53.359Z,9.76
2023-03-30T21:17:25.056Z,9.79
2023-03-30T21:19:56.534Z,9.77
2023-03-30T21:22:28.345Z,9.76
2023-03-30T21:24:59.808Z,9.83
2023-03-30T21:27:31.786Z,9.83
2023-03-30T21:30:03.276Z,9.81
2023-03-30T21:32:35.085Z,9.82
2023-03-30T21:35:06.572Z,9.81
2023-03-30T21:37:38.394Z,9.79
2023-03-30T21:40:09.873Z,9.84
2023-03-30T21:42:41.696Z,9.88
2023-03-30T21:45:13.160Z,8.83
2023-03-30T21:47:44.864Z,9.87
2023-03-30T21:50:16.347Z,9.89
2023-03-30T21:52:48.035Z,9.87
2023-03-30T21:55:19.909Z,9.86
2023-03-30T21:57:51.400Z,9.83
2023-03-30T22:00:23.236Z,9.85
2023-03-30T22:02:54.823Z,9.83
2023-03-30T22:05:26.712Z,9.85
2023-03-30T22:07:58.236Z,9.82
2023-03-30T22:10:30.053Z,9.80
2023-03-30T22:13:01.550Z,9.82
2023-03-30T22:15:33.275Z,9.04
2023-03-30T22:18:04.758Z,9.80
2023-03-30T22:20:36.567Z,9.78
2023-03-30T22:23:08.032Z,9.81
2023-03-30T22:25:39.833Z,9.79
2023-03-30T22:28:11.293Z,9.80
2023-03-30T22:30:42.774Z,9.80
2023-03-30T22:33:14.244Z,9.80
2023-03-30T22:35:46.152Z,9.79
2023-03-30T22:38:17.670Z,9.80
2023-03-30T22:40:49.166Z,9.79
2023-03-30T22:43:20.635Z,9.81
2023-03-30T22:45:52.471Z,9.81
2023-03-30T22:48:24.021Z,9.82
2023-03-30T22:50:55.504Z,9.87
2023-03-30T22:53:26.968Z,9.89
2023-03-30T22:55:58.447Z,9.93
2023-03-30T22:58:29.941Z,10.00
2023-03-30T23:01:01.470Z,10.08
2023-03-30T23:03:33.089Z,10.11
2023-03-30T23:06:05.099Z,10.15
2023-03-30T23:08:36.797Z,10.16
2023-03-30T23:11:08.491Z,10.18
2023-03-30T23:13:39.986Z,10.19
2023-03-30T23:16:11.919Z,10.23
2023-03-30T23:18:43.382Z,10.32
2023-03-30T23:21:15.200Z,10.36
2023-03-30T23:23:46.681Z,10.43
2023-03-30T23:26:18.608Z,10.43
2023-03-30T23:28:50.140Z,10.42
2023-03-30T23:31:21.924Z,10.44
2023-03-30T23:33:53.414Z,10.49
2023-03-30T23:36:25.336Z,10.48
2023-03-30T23:38:56.857Z,10.45
2023-03-30T23:41:28.602Z,10.41
2023-03-30T23:44:00.116Z,10.40
2023-03-30T23:46:32.061Z,10.34
2023-03-30T23:49:03.657Z,10.31
2023-03-30T23:51:35.221Z,10.27
2023-03-30T23:54:06.690Z,10.19
2023-03-30T23:56:38.533Z,10.15
2023-03-30T23:59:09.997Z,10.07
